Time;durP1;ratioP1;P1;durP2;ratioP2;P2;SDS_P1;SDS_P2;PMS_P1;PMS_P2;Temp;Humidity;BMP_temperature;BMP_pressure;BME280_temperature;BME280_humidity;BME280_pressure;Samples;Min_cycle;Max_cycle;Signal;HPM_P1;HPM_P2
2023/11/17 00:00:31;;;;;;;10.23;7.15;;;;;;;3.71;100.00;101421.66;5110700;28;20138;-54
2023/11/17 00:03:02;;;;;;;12.00;7.45;;;;;;;3.71;100.00;101428.63;5112419;27;20093;-54
2023/11/17 00:05:31;;;;;;;11.45;7.05;;;;;;;3.69;100.00;101427.81;5111874;28;20476;-53
2023/11/17 00:07:59;;;;;;;13.07;6.95;;;;;;;3.68;100.00;101432.16;5114270;28;20039;-55
2023/11/17 00:10:27;;;;;;;12.07;7.45;;;;;;;3.67;100.00;101427.00;5113492;28;20542;-51
2023/11/17 00:12:57;;;;;;;10.90;7.22;;;;;;;3.65;100.00;101439.19;5112666;28;20044;-55
2023/11/17 00:15:25;;;;;;;14.95;7.68;;;;;;;3.64;100.00;101437.47;5112372;28;20109;-55
2023/11/17 00:17:53;;;;;;;12.90;7.68;;;;;;;3.62;100.00;101444.47;5114184;28;20051;-55
2023/11/17 00:20:22;;;;;;;11.65;8.05;;;;;;;3.61;100.00;101447.97;5113748;28;20051;-54
2023/11/17 00:22:52;;;;;;;14.55;7.15;;;;;;;3.59;100.00;101457.56;5111778;28;20047;-53
2023/11/17 00:25:20;;;;;;;10.77;7.03;;;;;;;3.57;100.00;101467.16;5111710;28;20163;-55
2023/11/17 00:27:49;;;;;;;13.88;7.45;;;;;;;3.55;100.00;101469.78;5111401;28;20498;-56
2023/11/17 00:30:18;;;;;;;15.48;7.28;;;;;;;3.54;100.00;101466.34;5111339;28;20071;-56
2023/11/17 00:32:46;;;;;;;15.15;7.70;;;;;;;3.51;100.00;101465.56;5111399;28;20053;-54
2023/11/17 00:35:15;;;;;;;11.55;7.82;;;;;;;3.49;100.00;101465.59;5110813;27;20171;-55
2023/11/17 00:37:43;;;;;;;11.82;7.30;;;;;;;3.49;100.00;101470.81;5111945;28;20051;-55
2023/11/17 00:40:12;;;;;;;11.48;7.00;;;;;;;3.46;100.00;101468.25;5111961;28;20406;-54
2023/11/17 00:42:40;;;;;;;10.98;7.10;;;;;;;3.44;100.00;101474.44;5112083;28;20413;-55
2023/11/17 00:45:10;;;;;;;16.00;7.47;;;;;;;3.41;100.00;101474.47;5110667;28;20046;-52
2023/11/17 00:47:40;;;;;;;11.55;7.38;;;;;;;3.39;100.00;101477.13;5110970;28;20054;-54
2023/11/17 00:50:11;;;;;;;12.00;7.22;;;;;;;3.35;100.00;101478.09;5113179;28;20050;-55
2023/11/17 00:52:41;;;;;;;11.95;6.85;;;;;;;3.31;100.00;101477.34;5113372;28;20075;-54
2023/11/17 00:55:13;;;;;;;13.40;7.35;;;;;;;3.29;100.00;101488.66;5111455;28;20036;-53
2023/11/17 00:57:42;;;;;;;11.27;7.35;;;;;;;3.25;100.00;101482.66;5108956;28;20100;-55
2023/11/17 01:00:12;;;;;;;11.75;8.00;;;;;;;3.26;100.00;101487.00;5112329;28;20051;-53
2023/11/17 01:02:42;;;;;;;12.25;7.88;;;;;;;3.22;100.00;101503.56;5112621;28;20124;-54
2023/11/17 01:05:10;;;;;;;9.82;6.65;;;;;;;3.20;100.00;101505.31;5109134;28;20455;-56
2023/11/17 01:07:38;;;;;;;11.40;7.75;;;;;;;3.18;100.00;101505.34;5111774;28;20118;-53
2023/11/17 01:10:08;;;;;;;12.68;7.50;;;;;;;3.16;100.00;101508.88;5112865;28;20055;-54
2023/11/17 01:12:36;;;;;;;11.02;7.30;;;;;;;3.15;100.00;101499.38;5111348;28;20082;-54
2023/11/17 01:15:10;;;;;;;13.15;7.38;;;;;;;3.13;100.00;101504.59;5112084;28;20402;-55
2023/11/17 01:17:38;;;;;;;12.20;7.38;;;;;;;3.10;100.00;101502.09;5110522;28;20071;-54
2023/11/17 01:20:09;;;;;;;13.23;8.65;;;;;;;3.09;100.00;101507.31;5110700;28;20043;-54
2023/11/17 01:22:38;;;;;;;11.10;7.72;;;;;;;3.08;100.00;101516.00;5110609;28;20138;-53
2023/11/17 01:25:07;;;;;;;13.38;8.10;;;;;;;3.04;100.00;101521.28;5109102;28;20112;-55
2023/11/17 01:27:39;;;;;;;12.65;7.72;;;;;;;3.02;100.00;101517.84;5109123;28;20071;-54
2023/11/17 01:30:09;;;;;;;10.95;7.68;;;;;;;3.01;100.00;101508.38;5110411;28;20039;-55
2023/11/17 01:32:37;;;;;;;11.35;7.70;;;;;;;2.99;100.00;101517.94;5110853;28;20401;-54
2023/11/17 01:35:09;;;;;;;14.73;8.82;;;;;;;3.01;100.00;101520.50;5112664;28;20048;-46
2023/11/17 01:37:37;;;;;;;13.27;8.33;;;;;;;3.01;100.00;101525.69;5112320;28;20505;-54
2023/11/17 01:40:06;;;;;;;12.63;7.65;;;;;;;2.96;100.00;101520.59;5108803;28;20386;-55
2023/11/17 01:42:36;;;;;;;13.60;7.90;;;;;;;2.96;100.00;101523.19;5110477;28;20047;-48
2023/11/17 01:45:07;;;;;;;12.40;8.70;;;;;;;2.93;100.00;101535.41;5111965;28;20089;-48
2023/11/17 01:47:38;;;;;;;12.93;8.60;;;;;;;2.88;100.00;101525.97;5112132;28;20036;-48
2023/11/17 01:50:10;;;;;;;12.77;8.23;;;;;;;2.90;100.00;101535.47;5112206;28;20141;-47
2023/11/17 01:52:40;;;;;;;11.63;8.20;;;;;;;2.88;100.00;101531.16;5112027;28;20052;-48
2023/11/17 01:55:09;;;;;;;13.07;8.52;;;;;;;2.87;100.00;101534.63;5111854;28;20044;-47
2023/11/17 01:57:38;;;;;;;13.50;8.10;;;;;;;2.87;100.00;101532.03;5110212;28;20931;-48
2023/11/17 02:00:13;;;;;;;12.40;8.02;;;;;;;2.86;100.00;101532.94;5108305;28;20060;-47
2023/11/17 02:02:44;;;;;;;14.00;8.45;;;;;;;2.87;100.00;101533.78;5110725;28;20514;-47
2023/11/17 02:05:16;;;;;;;14.15;9.25;;;;;;;2.86;100.00;101534.66;5111833;28;20423;-50
2023/11/17 02:07:55;;;;;;;12.70;8.10;;;;;;;2.86;100.00;101543.34;5112038;28;20443;-49
2023/11/17 02:10:31;;;;;;;13.00;8.35;;;;;;;2.85;100.00;101544.22;5111787;28;20445;-48
2023/11/17 02:13:07;;;;;;;14.18;8.52;;;;;;;2.87;100.00;101539.84;5111679;28;20082;-45
2023/11/17 02:15:39;;;;;;;13.68;8.73;;;;;;;2.88;100.00;101530.31;5111580;28;20108;-47
2023/11/17 02:18:10;;;;;;;15.65;9.07;;;;;;;2.88;100.00;101532.91;5111695;28;20048;-46
2023/11/17 02:20:44;;;;;;;13.32;8.45;;;;;;;2.87;100.00;101529.44;5111696;28;20051;-49
2023/11/17 02:23:17;;;;;;;12.00;8.05;;;;;;;2.88;100.00;101532.91;5111636;28;20051;-47
2023/11/17 02:25:55;;;;;;;12.80;8.57;;;;;;;2.87;100.00;101533.78;5110170;28;20112;-47
2023/11/17 02:28:34;;;;;;;16.35;8.75;;;;;;;2.89;100.00;101537.22;5108212;28;20050;-49
2023/11/17 02:31:15;;;;;;;13.18;9.18;;;;;;;2.90;100.00;101538.06;5109800;28;20051;-48
2023/11/17 02:33:48;;;;;;;13.60;9.45;;;;;;;2.91;100.00;101534.59;5108871;28;20092;-46
2023/11/17 02:36:18;;;;;;;15.52;9.85;;;;;;;2.92;100.00;101538.88;5107608;28;20044;-46
2023/11/17 02:38:56;;;;;;;13.30;10.07;;;;;;;2.94;100.00;101539.72;5108176;28;20151;-46
2023/11/17 02:41:32;;;;;;;16.33;10.52;;;;;;;2.94;100.00;101537.13;5107182;28;20474;-46
2023/11/17 02:44:03;;;;;;;13.38;9.23;;;;;;;2.94;100.00;101542.31;5111221;28;20065;-50
2023/11/17 02:46:33;;;;;;;14.05;9.38;;;;;;;2.92;100.00;101538.88;5114654;28;20044;-46
2023/11/17 02:49:03;;;;;;;12.52;8.85;;;;;;;2.89;100.00;101539.81;5114976;28;20067;-46
2023/11/17 02:51:43;;;;;;;14.05;8.90;;;;;;;2.91;100.00;101537.19;5115193;28;20036;-54
2023/11/17 02:54:14;;;;;;;13.32;9.05;;;;;;;2.91;100.00;101534.59;5115495;28;20093;-55
2023/11/17 02:56:43;;;;;;;13.48;9.18;;;;;;;2.91;100.00;101532.00;5115182;28;20031;-54
2023/11/17 02:59:13;;;;;;;13.50;8.65;;;;;;;2.89;100.00;101529.44;5115213;28;20051;-53
2023/11/17 03:01:43;;;;;;;12.43;8.38;;;;;;;2.89;100.00;101539.81;5115486;27;20051;-54
2023/11/17 03:04:13;;;;;;;14.20;8.70;;;;;;;2.88;100.00;101544.16;5113013;28;20052;-55
2023/11/17 03:06:46;;;;;;;14.75;8.90;;;;;;;2.86;100.00;101539.88;5112446;28;20058;-54
2023/11/17 03:09:15;;;;;;;11.15;7.72;;;;;;;2.84;100.00;101542.50;5110021;28;20499;-47
2023/11/17 03:11:44;;;;;;;13.27;8.30;;;;;;;2.84;100.00;101544.25;5109787;28;20048;-48
2023/11/17 03:14:12;;;;;;;12.60;8.10;;;;;;;2.80;100.00;101548.66;5114915;28;20039;-54
2023/11/17 03:16:42;;;;;;;12.13;8.38;;;;;;;2.78;100.00;101542.66;5113447;28;20051;-53
2023/11/17 03:19:11;;;;;;;14.98;9.40;;;;;;;2.77;100.00;101546.13;5111982;28;20052;-54
2023/11/17 03:21:41;;;;;;;12.95;8.60;;;;;;;2.77;100.00;101548.72;5114199;28;20079;-55
2023/11/17 03:24:17;;;;;;;14.73;8.50;;;;;;;2.76;100.00;101551.38;5115158;28;20560;-52
2023/11/17 03:26:46;;;;;;;13.55;8.55;;;;;;;2.73;100.00;101554.88;5114674;28;20043;-48
2023/11/17 03:29:15;;;;;;;13.10;8.70;;;;;;;2.73;100.00;101549.69;5112903;28;20424;-47
2023/11/17 03:31:49;;;;;;;13.90;8.35;;;;;;;2.72;100.00;101550.56;5111473;28;20101;-46
2023/11/17 03:34:23;;;;;;;11.27;8.18;;;;;;;2.69;100.00;101551.47;5113806;28;20046;-47
2023/11/17 03:36:56;;;;;;;13.75;8.38;;;;;;;2.68;100.00;101554.13;5114497;28;20048;-47
2023/11/17 03:39:26;;;;;;;13.95;9.55;;;;;;;2.65;100.00;101555.03;5114234;28;20432;-47
2023/11/17 03:41:54;;;;;;;12.52;8.35;;;;;;;2.63;100.00;101550.75;5114246;28;20039;-46
2023/11/17 03:44:25;;;;;;;12.57;8.57;;;;;;;2.61;100.00;101548.19;5114396;28;20101;-47
2023/11/17 03:46:55;;;;;;;12.48;8.70;;;;;;;2.61;100.00;101553.38;5114362;28;20067;-47
2023/11/17 03:49:25;;;;;;;12.77;8.85;;;;;;;2.59;100.00;101562.09;5114006;28;20447;-47
2023/11/17 03:51:54;;;;;;;12.23;8.05;;;;;;;2.57;100.00;101561.28;5113988;28;20505;-48
2023/11/17 03:54:26;;;;;;;10.90;7.97;;;;;;;2.54;100.00;101557.00;5114447;28;20050;-48
2023/11/17 03:56:56;;;;;;;14.05;9.13;;;;;;;2.53;100.00;101550.94;5112166;28;20079;-46
2023/11/17 03:59:24;;;;;;;12.88;8.88;;;;;;;2.54;100.00;101557.00;5114097;28;20379;-49
2023/11/17 04:01:54;;;;;;;15.93;10.07;;;;;;;2.51;100.00;101555.31;5114016;28;20821;-49
2023/11/17 04:04:25;;;;;;;17.55;10.15;;;;;;;2.53;100.00;101561.31;5113766;28;20063;-50
2023/11/17 04:06:57;;;;;;;15.32;10.18;;;;;;;2.53;100.00;101563.91;5112240;28;20050;-49
2023/11/17 04:09:27;;;;;;;13.90;9.75;;;;;;;2.52;100.00;101559.63;5113900;28;20657;-46
2023/11/17 04:11:58;;;;;;;16.05;10.13;;;;;;;2.52;100.00;101558.75;5112216;28;20071;-50
2023/11/17 04:14:37;;;;;;;17.73;10.93;;;;;;;2.50;100.00;101557.94;5113732;28;20055;-48
2023/11/17 04:17:07;;;;;;;20.00;9.70;;;;;;;2.51;100.00;101563.09;5113420;28;20082;-46
2023/11/17 04:19:36;;;;;;;15.52;10.68;;;;;;;2.52;100.00;101561.34;5111794;28;20039;-55
2023/11/17 04:22:06;;;;;;;13.75;9.52;;;;;;;2.52;100.00;101566.53;5110652;28;20090;-54
2023/11/17 04:24:34;;;;;;;16.02;10.35;;;;;;;2.52;100.00;101569.16;5112727;28;20056;-53
2023/11/17 04:27:02;;;;;;;14.35;10.65;;;;;;;2.52;100.00;101564.81;5110565;28;20039;-54
2023/11/17 04:29:31;;;;;;;15.30;10.40;;;;;;;2.52;100.00;101558.75;5111839;28;20048;-54
2023/11/17 04:32:01;;;;;;;13.68;10.60;;;;;;;2.53;100.00;101558.72;5111950;28;20471;-53
2023/11/17 04:34:31;;;;;;;16.95;10.50;;;;;;;2.52;100.00;101563.94;5110906;28;20498;-54
2023/11/17 04:36:59;;;;;;;13.65;10.30;;;;;;;2.53;100.00;101566.50;5110826;28;20054;-52
2023/11/17 04:39:27;;;;;;;14.77;10.38;;;;;;;2.56;100.00;101570.78;5110202;28;20039;-53
2023/11/17 04:41:55;;;;;;;14.38;10.82;;;;;;;2.54;100.00;101567.38;5109262;28;20054;-53
2023/11/17 04:44:24;;;;;;;15.43;10.50;;;;;;;2.54;100.00;101567.38;5110531;28;20051;-55
2023/11/17 04:46:54;;;;;;;17.77;9.98;;;;;;;2.54;100.00;101565.63;5111456;28;20067;-55
2023/11/17 04:49:23;;;;;;;17.08;10.88;;;;;;;2.56;100.00;101575.16;5110133;28;20059;-54
2023/11/17 04:51:52;;;;;;;13.52;10.13;;;;;;;2.55;100.00;101566.50;5113359;28;20040;-54
2023/11/17 04:54:22;;;;;;;15.77;11.27;;;;;;;2.56;100.00;101564.75;5113329;28;20100;-45
2023/11/17 04:56:50;;;;;;;19.45;12.05;;;;;;;2.56;100.00;101564.75;5112949;28;20059;-47
2023/11/17 04:59:18;;;;;;;15.73;11.27;;;;;;;2.56;100.00;101570.78;5112905;28;20474;-51
2023/11/17 05:01:46;;;;;;;15.10;10.88;;;;;;;2.56;100.00;101556.97;5110364;28;20094;-47
2023/11/17 05:04:15;;;;;;;17.73;11.38;;;;;;;2.57;100.00;101569.06;5109620;28;20051;-47
2023/11/17 05:06:44;;;;;;;16.58;11.57;;;;;;;2.57;100.00;101563.88;5112262;28;20036;-48
2023/11/17 05:09:13;;;;;;;17.25;11.63;;;;;;;2.58;100.00;101571.63;5112130;28;20566;-54
2023/11/17 05:11:42;;;;;;;16.75;11.93;;;;;;;2.61;100.00;101568.97;5110814;28;20047;-55
2023/11/17 05:14:12;;;;;;;16.80;11.57;;;;;;;2.64;100.00;101573.25;5109607;28;20063;-53
2023/11/17 05:16:42;;;;;;;22.10;11.85;;;;;;;2.65;100.00;101581.00;5109642;28;20051;-55
2023/11/17 05:19:13;;;;;;;17.52;11.80;;;;;;;2.67;100.00;101580.97;5108209;28;20398;-54
2023/11/17 05:21:42;;;;;;;16.52;11.88;;;;;;;2.68;100.00;101580.94;5109423;28;20104;-55
2023/11/17 05:24:10;;;;;;;18.75;12.45;;;;;;;2.70;100.00;101579.16;5109539;28;20051;-55
2023/11/17 05:26:39;;;;;;;18.27;13.18;;;;;;;2.73;100.00;101585.19;5110752;28;20044;-53
2023/11/17 05:29:07;;;;;;;20.27;12.57;;;;;;;2.74;100.00;101582.56;5109628;28;20387;-55
2023/11/17 05:31:35;;;;;;;23.58;14.30;;;;;;;2.77;100.00;101581.63;5110091;28;20040;-54
2023/11/17 05:34:04;;;;;;;25.38;15.70;;;;;;;2.77;100.00;101585.09;5111204;28;20517;-56
2023/11/17 05:36:39;;;;;;;29.58;17.35;;;;;;;2.80;100.00;101584.19;5109340;28;20077;-56
2023/11/17 05:39:09;;;;;;;29.85;18.67;;;;;;;2.80;100.00;101585.03;5107930;28;20078;-55
2023/11/17 05:41:37;;;;;;;23.52;16.25;;;;;;;2.81;100.00;101588.47;5112037;28;20506;-54
2023/11/17 05:44:07;;;;;;;21.17;14.10;;;;;;;2.82;100.00;101591.06;5109296;28;20043;-54
2023/11/17 05:46:35;;;;;;;25.33;14.15;;;;;;;2.82;100.00;101588.47;5109710;28;20055;-55
2023/11/17 05:49:06;;;;;;;18.08;13.13;;;;;;;2.84;100.00;101591.03;5109548;28;20479;-55
2023/11/17 05:51:34;;;;;;;19.08;13.07;;;;;;;2.86;100.00;101581.44;5109244;28;20047;-54
2023/11/17 05:54:03;;;;;;;19.33;13.40;;;;;;;2.87;100.00;101584.00;5111516;28;20048;-53
2023/11/17 05:56:31;;;;;;;21.23;12.88;;;;;;;2.90;100.00;101583.09;5107709;28;20048;-55
2023/11/17 05:58:59;;;;;;;17.23;12.18;;;;;;;2.91;100.00;101583.97;5110421;28;20050;-54
2023/11/17 06:01:29;;;;;;;22.75;12.85;;;;;;;2.91;100.00;101591.75;5112257;28;20043;-55
2023/11/17 06:03:57;;;;;;;20.25;13.25;;;;;;;2.91;100.00;101590.00;5112258;28;20126;-54
2023/11/17 06:06:25;;;;;;;17.02;11.82;;;;;;;2.91;100.00;101586.56;5112018;28;20055;-54
2023/11/17 06:08:54;;;;;;;15.85;12.23;;;;;;;2.93;100.00;101596.03;5111977;28;20044;-55
2023/11/17 06:11:25;;;;;;;16.25;12.20;;;;;;;2.93;100.00;101595.16;5110882;28;20044;-55
2023/11/17 06:13:53;;;;;;;17.00;12.38;;;;;;;2.94;100.00;101600.31;5109530;28;20069;-55
2023/11/17 06:16:24;;;;;;;17.33;12.52;;;;;;;2.96;100.00;101602.88;5108898;28;21169;-55
2023/11/17 06:18:54;;;;;;;15.77;11.23;;;;;;;2.96;100.00;101601.16;5110510;28;20048;-56
2023/11/17 06:21:23;;;;;;;16.63;12.00;;;;;;;2.98;100.00;101603.72;5112057;28;20104;-55
2023/11/17 06:23:51;;;;;;;17.13;11.88;;;;;;;3.00;100.00;101607.13;5112659;28;20079;-57
2023/11/17 06:26:19;;;;;;;17.13;12.27;;;;;;;3.00;100.00;101608.00;5111003;28;20051;-54
2023/11/17 06:28:47;;;;;;;16.02;11.48;;;;;;;3.00;100.00;101607.13;5114559;28;20044;-54
2023/11/17 06:31:16;;;;;;;15.35;10.82;;;;;;;3.01;100.00;101612.31;5115918;28;20040;-54
2023/11/17 06:33:44;;;;;;;16.20;11.27;;;;;;;3.02;100.00;101615.75;5114373;28;20766;-53
2023/11/17 06:36:14;;;;;;;13.57;10.90;;;;;;;3.01;100.00;101622.72;5114510;28;20047;-55
2023/11/17 06:38:45;;;;;;;19.30;11.27;;;;;;;3.01;100.00;101620.13;5115725;28;20047;-54
2023/11/17 06:41:14;;;;;;;15.27;10.77;;;;;;;3.03;100.00;101617.47;5112806;28;20050;-54
2023/11/17 06:43:43;;;;;;;14.77;11.20;;;;;;;3.03;100.00;101618.31;5112907;28;20051;-56
2023/11/17 06:46:14;;;;;;;14.73;10.67;;;;;;;3.04;100.00;101625.25;5112523;28;20050;-56
2023/11/17 06:48:42;;;;;;;15.32;11.35;;;;;;;3.05;100.00;101631.28;5111581;28;20075;-56
2023/11/17 06:51:10;;;;;;;16.08;11.50;;;;;;;3.02;100.00;101639.16;5111564;28;20716;-55
2023/11/17 06:53:40;;;;;;;16.02;11.35;;;;;;;3.03;100.00;101643.47;5114076;28;20055;-54
2023/11/17 06:56:09;;;;;;;20.40;11.25;;;;;;;3.07;100.00;101641.66;5111650;28;20096;-56
2023/11/17 06:58:40;;;;;;;18.20;12.07;;;;;;;3.05;100.00;101646.88;5112780;28;20043;-54
2023/11/17 07:01:09;;;;;;;21.35;14.95;;;;;;;3.06;100.00;101645.16;5114796;28;20052;-57
2023/11/17 07:03:38;;;;;;;17.88;13.30;;;;;;;3.05;100.00;101652.06;5114882;28;20105;-54
2023/11/17 07:06:06;;;;;;;18.30;13.32;;;;;;;3.05;100.00;101646.88;5115076;28;20519;-54
2023/11/17 07:08:34;;;;;;;17.63;12.93;;;;;;;3.07;100.00;101645.13;5113818;28;20048;-55
2023/11/17 07:11:10;;;;;;;18.48;12.32;;;;;;;3.07;100.00;101649.44;5114963;28;20052;-55
2023/11/17 07:13:40;;;;;;;16.13;12.07;;;;;;;3.08;100.00;101648.56;5112457;28;20048;-55
2023/11/17 07:16:12;;;;;;;16.98;12.23;;;;;;;3.10;100.00;101649.41;5111578;28;20482;-55
2023/11/17 07:18:41;;;;;;;16.95;12.68;;;;;;;3.11;100.00;101651.97;5111688;28;20546;-54
2023/11/17 07:21:10;;;;;;;19.95;13.05;;;;;;;3.12;100.00;101658.88;5112491;28;20441;-54
2023/11/17 07:23:43;;;;;;;19.02;12.68;;;;;;;3.14;100.00;101656.25;5114812;28;20050;-56
2023/11/17 07:26:20;;;;;;;21.20;12.85;;;;;;;3.16;100.00;101659.66;5113776;28;20053;-55
2023/11/17 07:28:50;;;;;;;19.17;12.80;;;;;;;3.17;100.00;101659.63;5112143;28;20123;-55
2023/11/17 07:31:18;;;;;;;22.88;13.15;;;;;;;3.18;100.00;101657.88;5112686;28;20075;-55
2023/11/17 07:33:47;;;;;;;19.23;13.20;;;;;;;3.18;100.00;101665.69;5114548;28;20058;-55
2023/11/17 07:36:16;;;;;;;19.27;13.57;;;;;;;3.21;100.00;101671.66;5113313;28;20474;-55
2023/11/17 07:38:51;;;;;;;18.65;13.90;;;;;;;3.24;100.00;101673.34;5113037;28;20054;-55
2023/11/17 07:41:21;;;;;;;21.08;14.10;;;;;;;3.24;100.00;101669.91;5114710;28;20055;-56
2023/11/17 07:43:49;;;;;;;20.10;14.02;;;;;;;3.28;100.00;101671.53;5112391;28;20883;-56
2023/11/17 07:46:17;;;;;;;20.55;14.27;;;;;;;3.31;100.00;101674.06;5109139;28;20063;-53
2023/11/17 07:48:45;;;;;;;20.55;14.23;;;;;;;3.35;100.00;101675.72;5111387;28;20406;-54
2023/11/17 07:51:23;;;;;;;17.50;13.57;;;;;;;3.35;100.00;101671.41;5111485;28;20051;-54
2023/11/17 07:53:51;;;;;;;37.17;14.57;;;;;;;3.38;100.00;101676.53;5112899;28;20047;-54
2023/11/17 07:56:21;;;;;;;22.17;13.98;;;;;;;3.40;100.00;101684.28;5114144;28;20502;-54
2023/11/17 07:58:53;;;;;;;25.13;15.07;;;;;;;3.42;100.00;101686.84;5114277;28;20031;-53
2023/11/17 08:01:21;;;;;;;30.25;13.77;;;;;;;3.45;100.00;101686.78;5111035;28;20058;-55
2023/11/17 08:03:52;;;;;;;22.67;13.88;;;;;;;3.46;100.00;101681.53;5109994;28;20059;-56
2023/11/17 08:06:20;;;;;;;25.38;14.00;;;;;;;3.49;100.00;101689.28;5111872;28;20075;-56
2023/11/17 08:08:48;;;;;;;28.95;13.65;;;;;;;3.52;100.00;101688.38;5113806;28;20035;-54
2023/11/17 08:11:16;;;;;;;60.33;15.23;;;;;;;3.55;100.00;101683.94;5112509;28;20097;-54
2023/11/17 08:13:46;;;;;;;33.72;14.30;;;;;;;3.55;100.00;101689.13;5113725;28;20040;-55
2023/11/17 08:16:14;;;;;;;45.83;14.30;;;;;;;3.56;100.00;101695.22;5113880;27;20044;-55
2023/11/17 08:18:47;;;;;;;30.23;13.75;;;;;;;3.58;100.00;101697.78;5112013;28;20044;-56
2023/11/17 08:21:15;;;;;;;25.10;14.15;;;;;;;3.65;100.00;101688.94;5110308;28;20051;-53
2023/11/17 08:23:44;;;;;;;29.63;14.07;;;;;;;3.67;100.00;101692.38;5113243;28;20055;-55
2023/11/17 08:26:14;;;;;;;25.80;12.93;;;;;;;3.67;100.00;101701.03;5113437;28;20059;-54
2023/11/17 08:28:42;;;;;;;18.80;13.20;;;;;;;3.72;100.00;101704.38;5113414;28;20078;-54
2023/11/17 08:31:14;;;;;;;16.00;12.70;;;;;;;3.76;100.00;101710.34;5113356;28;20520;-55
2023/11/17 08:33:43;;;;;;;16.80;12.98;;;;;;;3.79;100.00;101712.03;5113481;28;20052;-56
2023/11/17 08:36:11;;;;;;;19.27;13.15;;;;;;;3.80;100.00;101719.81;5113384;28;20051;-55
2023/11/17 08:38:41;;;;;;;19.10;13.38;;;;;;;3.88;100.00;101719.63;5113294;28;20043;-55
2023/11/17 08:41:10;;;;;;;19.25;13.25;;;;;;;3.89;100.00;101723.97;5113275;28;20052;-54
2023/11/17 08:43:38;;;;;;;20.27;13.15;;;;;;;3.91;100.00;101731.72;5112138;28;20120;-56
2023/11/17 08:46:07;;;;;;;16.48;12.65;;;;;;;3.95;100.00;101733.38;5113094;28;20044;-46
2023/11/17 08:48:38;;;;;;;16.27;12.60;;;;;;;3.95;100.00;101741.19;5111941;28;20051;-49
2023/11/17 08:51:07;;;;;;;16.88;12.07;;;;;;;3.97;100.00;101734.19;5112985;28;20051;-48
2023/11/17 08:53:37;;;;;;;20.05;13.75;;;;;;;4.03;100.00;101736.66;5112969;28;20039;-56
2023/11/17 08:56:06;;;;;;;18.58;13.68;;;;;;;4.02;100.00;101735.81;5113146;28;20047;-55
2023/11/17 08:58:35;;;;;;;17.25;13.50;;;;;;;4.07;100.00;101741.72;5111799;28;20490;-55
2023/11/17 09:01:05;;;;;;;17.63;12.98;;;;;;;4.07;100.00;101733.91;5110820;28;20161;-57
2023/11/17 09:03:34;;;;;;;17.20;12.95;;;;;;;4.10;100.00;101737.34;5110638;28;20150;-55
2023/11/17 09:06:05;;;;;;;18.00;12.85;;;;;;;4.12;100.00;101738.16;5112815;28;20055;-54
2023/11/17 09:08:33;;;;;;;17.77;12.77;;;;;;;4.16;100.00;101742.41;5111680;28;20170;-55
2023/11/17 09:11:01;;;;;;;18.98;13.13;;;;;;;4.15;100.00;101746.75;5111886;28;20441;-56
2023/11/17 09:13:29;;;;;;;20.35;12.93;;;;;;;4.19;100.00;101743.19;5112843;28;20051;-55
2023/11/17 09:15:58;;;;;;;18.67;13.05;;;;;;;4.23;100.00;101749.19;5112797;28;20502;-54
2023/11/17 09:18:27;;;;;;;18.20;12.65;;;;;;;4.27;100.00;101747.34;5111390;28;20140;-56
2023/11/17 09:20:57;;;;;;;19.15;12.95;;;;;;;4.33;100.00;101755.03;5112612;28;20040;-48
2023/11/17 09:23:26;;;;;;;17.67;12.90;;;;;;;4.35;100.00;101748.91;5112401;28;20039;-48
2023/11/17 09:25:56;;;;;;;18.33;12.73;;;;;;;4.40;100.00;101754.84;5109179;28;20104;-46
2023/11/17 09:28:24;;;;;;;42.88;13.95;;;;;;;4.48;100.00;101752.03;5109263;28;20059;-45
2023/11/17 09:30:52;;;;;;;18.80;12.63;;;;;;;4.57;100.00;101759.63;5112358;28;20036;-48
2023/11/17 09:33:21;;;;;;;20.80;12.90;;;;;;;4.65;100.00;101753.34;5112545;28;20502;-50
2023/11/17 09:35:49;;;;;;;15.35;11.32;;;;;;;4.70;100.00;101762.78;5112321;28;20100;-47
2023/11/17 09:38:20;;;;;;;18.38;13.68;;;;;;;4.78;100.00;101765.19;5110997;28;20051;-50
2023/11/17 09:41:00;;;;;;;19.77;13.20;;;;;;;4.86;100.00;101764.97;5112248;28;20422;-47
2023/11/17 09:43:37;;;;;;;16.10;12.85;;;;;;;5.09;100.00;101769.59;5111163;28;20142;-50
2023/11/17 09:46:08;;;;;;;19.02;12.90;;;;;;;5.30;100.00;101775.09;5110937;28;20062;-47
2023/11/17 09:48:38;;;;;;;19.98;13.48;;;;;;;5.47;100.00;101772.88;5112346;28;20043;-46
2023/11/17 09:51:07;;;;;;;16.55;12.30;;;;;;;5.56;100.00;101776.94;5112187;28;20044;-48
2023/11/17 09:53:39;;;;;;;17.98;12.23;;;;;;;5.59;100.00;101780.34;5113818;28;20047;-46
2023/11/17 09:56:10;;;;;;;16.33;13.45;;;;;;;5.82;100.00;101770.97;5118675;27;20043;-45
2023/11/17 09:58:39;;;;;;;17.52;13.75;;;;;;;5.97;100.00;101771.38;5117242;28;20052;-46
2023/11/17 10:01:10;;;;;;;18.38;14.48;;;;;;;6.05;100.00;101770.28;5118801;27;20506;-54
2023/11/17 10:03:42;;;;;;;16.30;13.05;;;;;;;6.15;100.00;101770.84;5117701;27;20118;-55
2023/11/17 10:06:14;;;;;;;20.25;14.00;;;;;;;6.28;100.00;101771.31;5117072;28;20391;-57
2023/11/17 10:08:43;;;;;;;19.15;13.68;;;;;;;6.29;100.00;101783.47;5118198;28;20051;-57
2023/11/17 10:11:17;;;;;;;19.77;13.52;;;;;;;6.30;100.00;101776.47;5118539;28;20040;-57
2023/11/17 10:13:47;;;;;;;22.55;14.40;;;;;;;6.36;100.00;101789.34;5118057;27;20067;-58
2023/11/17 10:16:21;;;;;;;20.75;14.60;;;;;;;6.41;100.00;101783.06;5117467;27;20039;-57
2023/11/17 10:18:50;;;;;;;21.77;14.63;;;;;;;6.48;100.00;101788.94;5118184;28;20101;-57
2023/11/17 10:21:19;;;;;;;21.42;14.48;;;;;;;6.55;100.00;101790.44;5119621;28;20505;-56
2023/11/17 10:23:50;;;;;;;24.42;16.30;;;;;;;6.66;100.00;101797.09;5119430;28;20524;-57
2023/11/17 10:26:22;;;;;;;23.52;15.82;;;;;;;6.73;100.00;101801.19;5118778;28;20043;-57
2023/11/17 10:28:51;;;;;;;21.30;15.80;;;;;;;6.87;100.00;101805.94;5116830;28;20056;-57
2023/11/17 10:31:21;;;;;;;20.42;15.85;;;;;;;6.91;100.00;101792.75;5119648;27;20036;-57
2023/11/17 10:33:53;;;;;;;22.30;15.65;;;;;;;7.02;100.00;101794.09;5119824;28;20526;-57
2023/11/17 10:36:24;;;;;;;20.55;15.27;;;;;;;7.07;100.00;101794.81;5118281;28;20052;-58
2023/11/17 10:39:06;;;;;;;19.33;14.55;;;;;;;7.15;100.00;101786.69;5119521;27;20048;-56
2023/11/17 10:41:36;;;;;;;19.25;14.27;;;;;;;7.19;100.00;101781.28;5118622;28;20478;-57
2023/11/17 10:44:08;;;;;;;23.52;14.88;;;;;;;7.27;100.00;101794.09;5118861;28;20054;-56
2023/11/17 10:46:39;;;;;;;18.00;13.82;;;;;;;7.33;100.00;101795.66;5119585;28;20048;-57
2023/11/17 10:49:15;;;;;;;17.75;12.40;;;;;;;7.36;100.00;101790.28;5119586;27;20039;-56
2023/11/17 10:51:47;;;;;;;17.77;11.77;;;;;;;7.35;100.00;101797.28;5119627;27;20040;-57
2023/11/17 10:54:15;;;;;;;19.48;12.75;;;;;;;7.44;100.00;101809.19;5119557;28;20044;-58
2023/11/17 10:56:47;;;;;;;18.38;12.20;;;;;;;7.55;100.00;101814.03;5119314;27;20051;-57
2023/11/17 10:59:18;;;;;;;19.92;13.20;;;;;;;7.54;100.00;101813.19;5117696;28;20079;-57
2023/11/17 11:01:47;;;;;;;19.53;12.53;;;;;;;7.54;100.00;101812.31;5098673;28;20040;-56
2023/11/17 11:04:24;;;;;;;19.77;12.52;;;;;;;7.64;100.00;101808.44;5098916;28;20459;-57
2023/11/17 11:06:55;;;;;;;17.85;12.02;;;;;;;7.78;100.00;101805.31;5094810;28;20076;-57
2023/11/17 11:09:32;;;;;;;15.98;10.85;;;;;;;7.92;100.00;101803.03;5095856;28;20040;-47
2023/11/17 11:12:02;;;;;;;14.18;10.23;;;;;;;8.06;100.00;101807.72;5094773;28;20055;-56
2023/11/17 11:14:31;;;;;;;12.23;8.48;;;;;;;8.19;100.00;101812.47;5095810;28;20079;-56
2023/11/17 11:17:01;;;;;;;14.80;8.50;;;;;;;8.31;100.00;101811.97;5077119;28;20093;-56
2023/11/17 11:19:35;;;;;;;16.90;9.27;;;;;;;8.38;100.00;101809.97;5095529;28;20410;-56
2023/11/17 11:22:20;;;;;;;14.70;9.27;;;;;;;8.49;100.00;101809.56;5093423;28;20514;-46
2023/11/17 11:24:49;;;;;;;11.85;8.40;;;;;;;8.60;100.00;101812.59;5089268;28;20073;-46